sensor_id;sensor_type;location;lat;lon;timestamp;P1;durP1;ratioP1;P2;durP2;ratioP2
1651;SDS011;823;49.028;8.454;2022-10-31T00:04:46;10.57;;;5.18;;
1651;SDS011;823;49.028;8.454;2022-10-31T00:09:46;10.87;;;4.53;;
1651;SDS011;823;49.028;8.454;2022-10-31T00:14:46;12.50;;;4.73;;
1651;SDS011;823;49.028;8.454;2022-10-31T00:19:47;8.05;;;4.57;;
1651;SDS011;823;49.028;8.454;2022-10-31T00:24:47;9.40;;;3.90;;
1651;SDS011;823;49.028;8.454;2022-10-31T00:29:47;13.63;;;4.75;;
1651;SDS011;823;49.028;8.454;2022-10-31T00:34:48;8.75;;;4.45;;
1651;SDS011;823;49.028;8.454;2022-10-31T00:39:48;8.07;;;4.00;;
1651;SDS011;823;49.028;8.454;2022-10-31T00:44:49;9.40;;;4.30;;
1651;SDS011;823;49.028;8.454;2022-10-31T00:49:49;10.55;;;4.18;;
1651;SDS011;823;49.028;8.454;2022-10-31T00:54:50;10.30;;;4.70;;
1651;SDS011;823;49.028;8.454;2022-10-31T00:59:50;5.83;;;3.90;;
1651;SDS011;823;49.028;8.454;2022-10-31T01:04:50;8.00;;;4.40;;
1651;SDS011;823;49.028;8.454;2022-10-31T01:09:51;6.80;;;4.27;;
1651;SDS011;823;49.028;8.454;2022-10-31T01:14:51;10.70;;;4.47;;
1651;SDS011;823;49.028;8.454;2022-10-31T01:19:51;7.90;;;4.93;;
1651;SDS011;823;49.028;8.454;2022-10-31T01:24:51;6.90;;;3.90;;
1651;SDS011;823;49.028;8.454;2022-10-31T01:29:52;9.75;;;5.03;;
1651;SDS011;823;49.028;8.454;2022-10-31T01:34:52;7.03;;;4.43;;
1651;SDS011;823;49.028;8.454;2022-10-31T01:39:52;11.45;;;4.35;;
1651;SDS011;823;49.028;8.454;2022-10-31T01:44:54;9.53;;;4.77;;
1651;SDS011;823;49.028;8.454;2022-10-31T01:49:57;10.77;;;4.73;;
1651;SDS011;823;49.028;8.454;2022-10-31T02:00:32;8.03;;;4.50;;
1651;SDS011;823;49.028;8.454;2022-10-31T02:05:32;12.97;;;5.03;;
1651;SDS011;823;49.028;8.454;2022-10-31T02:10:34;8.47;;;4.80;;
1651;SDS011;823;49.028;8.454;2022-10-31T02:15:36;9.60;;;4.70;;
1651;SDS011;823;49.028;8.454;2022-10-31T02:20:49;10.63;;;4.40;;
1651;SDS011;823;49.028;8.454;2022-10-31T02:26:13;12.53;;;5.63;;
1651;SDS011;823;49.028;8.454;2022-10-31T02:42:18;9.30;;;4.00;;
1651;SDS011;823;49.028;8.454;2022-10-31T02:47:36;13.23;;;5.77;;
1651;SDS011;823;49.028;8.454;2022-10-31T02:52:38;7.70;;;4.73;;
1651;SDS011;823;49.028;8.454;2022-10-31T02:57:39;7.43;;;4.67;;
1651;SDS011;823;49.028;8.454;2022-10-31T03:07:59;8.37;;;4.40;;
1651;SDS011;823;49.028;8.454;2022-10-31T03:18:46;6.40;;;4.10;;
1651;SDS011;823;49.028;8.454;2022-10-31T03:24:00;11.73;;;4.70;;
1651;SDS011;823;49.028;8.454;2022-10-31T03:29:03;11.97;;;5.00;;
1651;SDS011;823;49.028;8.454;2022-10-31T03:34:06;8.03;;;3.70;;
1651;SDS011;823;49.028;8.454;2022-10-31T03:39:10;11.20;;;4.03;;
1651;SDS011;823;49.028;8.454;2022-10-31T03:44:16;7.30;;;4.20;;
1651;SDS011;823;49.028;8.454;2022-10-31T03:49:19;9.13;;;4.00;;
1651;SDS011;823;49.028;8.454;2022-10-31T03:59:30;13.80;;;3.97;;
1651;SDS011;823;49.028;8.454;2022-10-31T04:04:34;14.80;;;3.60;;
1651;SDS011;823;49.028;8.454;2022-10-31T04:09:37;7.40;;;4.50;;
1651;SDS011;823;49.028;8.454;2022-10-31T04:14:41;6.37;;;2.90;;
1651;SDS011;823;49.028;8.454;2022-10-31T04:19:44;14.77;;;3.70;;
1651;SDS011;823;49.028;8.454;2022-10-31T04:24:44;5.77;;;3.90;;
1651;SDS011;823;49.028;8.454;2022-10-31T04:29:45;7.43;;;3.70;;
1651;SDS011;823;49.028;8.454;2022-10-31T04:34:45;6.57;;;3.50;;
1651;SDS011;823;49.028;8.454;2022-10-31T04:39:45;6.77;;;3.83;;
1651;SDS011;823;49.028;8.454;2022-10-31T04:44:46;6.60;;;3.17;;
1651;SDS011;823;49.028;8.454;2022-10-31T04:49:46;4.60;;;3.55;;
1651;SDS011;823;49.028;8.454;2022-10-31T04:54:46;11.63;;;4.40;;
1651;SDS011;823;49.028;8.454;2022-10-31T04:59:47;10.40;;;3.60;;
1651;SDS011;823;49.028;8.454;2022-10-31T05:04:47;8.07;;;3.13;;
1651;SDS011;823;49.028;8.454;2022-10-31T05:09:47;3.88;;;2.85;;
1651;SDS011;823;49.028;8.454;2022-10-31T05:14:47;9.23;;;4.00;;
1651;SDS011;823;49.028;8.454;2022-10-31T05:19:48;6.23;;;3.37;;
1651;SDS011;823;49.028;8.454;2022-10-31T05:24:48;6.47;;;3.23;;
1651;SDS011;823;49.028;8.454;2022-10-31T05:29:48;6.97;;;3.60;;
1651;SDS011;823;49.028;8.454;2022-10-31T05:34:49;14.88;;;3.60;;
1651;SDS011;823;49.028;8.454;2022-10-31T05:39:49;7.82;;;3.53;;
1651;SDS011;823;49.028;8.454;2022-10-31T05:44:49;8.60;;;3.50;;
1651;SDS011;823;49.028;8.454;2022-10-31T05:49:50;7.20;;;4.35;;
1651;SDS011;823;49.028;8.454;2022-10-31T05:54:50;8.23;;;4.30;;
1651;SDS011;823;49.028;8.454;2022-10-31T05:59:50;6.43;;;3.53;;
1651;SDS011;823;49.028;8.454;2022-10-31T06:04:52;8.63;;;4.13;;
1651;SDS011;823;49.028;8.454;2022-10-31T06:09:53;6.37;;;3.83;;
1651;SDS011;823;49.028;8.454;2022-10-31T06:14:53;6.20;;;3.33;;
1651;SDS011;823;49.028;8.454;2022-10-31T06:19:53;11.77;;;4.07;;
1651;SDS011;823;49.028;8.454;2022-10-31T06:24:54;8.50;;;3.30;;
1651;SDS011;823;49.028;8.454;2022-10-31T06:29:54;14.10;;;3.40;;
1651;SDS011;823;49.028;8.454;2022-10-31T06:34:54;5.93;;;3.60;;
1651;SDS011;823;49.028;8.454;2022-10-31T06:39:54;5.90;;;3.60;;
1651;SDS011;823;49.028;8.454;2022-10-31T06:44:55;6.30;;;3.22;;
1651;SDS011;823;49.028;8.454;2022-10-31T06:49:55;16.90;;;4.07;;
1651;SDS011;823;49.028;8.454;2022-10-31T06:54:55;7.05;;;3.55;;
1651;SDS011;823;49.028;8.454;2022-10-31T06:59:56;10.30;;;3.25;;
1651;SDS011;823;49.028;8.454;2022-10-31T07:04:56;6.13;;;3.60;;
1651;SDS011;823;49.028;8.454;2022-10-31T07:09:56;20.40;;;4.38;;
1651;SDS011;823;49.028;8.454;2022-10-31T07:14:57;11.47;;;3.77;;
1651;SDS011;823;49.028;8.454;2022-10-31T07:19:57;9.10;;;4.20;;
1651;SDS011;823;49.028;8.454;2022-10-31T07:24:57;7.40;;;3.40;;
1651;SDS011;823;49.028;8.454;2022-10-31T07:29:58;11.07;;;3.00;;
1651;SDS011;823;49.028;8.454;2022-10-31T07:34:58;9.95;;;3.58;;
1651;SDS011;823;49.028;8.454;2022-10-31T07:39:58;9.23;;;3.42;;
1651;SDS011;823;49.028;8.454;2022-10-31T07:44:58;11.50;;;3.97;;
1651;SDS011;823;49.028;8.454;2022-10-31T07:49:59;8.07;;;3.50;;
1651;SDS011;823;49.028;8.454;2022-10-31T07:54:59;9.73;;;4.53;;
1651;SDS011;823;49.028;8.454;2022-10-31T07:59:59;6.13;;;4.00;;
1651;SDS011;823;49.028;8.454;2022-10-31T08:05:00;8.90;;;4.10;;
1651;SDS011;823;49.028;8.454;2022-10-31T08:10:01;6.87;;;3.90;;
1651;SDS011;823;49.028;8.454;2022-10-31T08:15:02;7.57;;;3.37;;
1651;SDS011;823;49.028;8.454;2022-10-31T08:20:03;16.13;;;4.30;;
1651;SDS011;823;49.028;8.454;2022-10-31T08:25:04;8.63;;;3.77;;
1651;SDS011;823;49.028;8.454;2022-10-31T08:30:05;4.60;;;3.20;;
1651;SDS011;823;49.028;8.454;2022-10-31T08:35:06;5.27;;;3.27;;
1651;SDS011;823;49.028;8.454;2022-10-31T08:40:06;6.43;;;3.57;;
1651;SDS011;823;49.028;8.454;2022-10-31T08:45:07;15.50;;;5.33;;
1651;SDS011;823;49.028;8.454;2022-10-31T08:50:08;9.73;;;3.27;;
1651;SDS011;823;49.028;8.454;2022-10-31T08:55:09;6.77;;;3.23;;
1651;SDS011;823;49.028;8.454;2022-10-31T09:00:09;5.30;;;2.78;;
1651;SDS011;823;49.028;8.454;2022-10-31T09:05:10;5.50;;;2.90;;
1651;SDS011;823;49.028;8.454;2022-10-31T09:10:10;14.85;;;3.53;;
1651;SDS011;823;49.028;8.454;2022-10-31T09:15:11;4.47;;;3.37;;
1651;SDS011;823;49.028;8.454;2022-10-31T09:20:11;7.53;;;3.60;;
1651;SDS011;823;49.028;8.454;2022-10-31T09:25:12;4.83;;;3.20;;
1651;SDS011;823;49.028;8.454;2022-10-31T09:30:12;8.20;;;3.57;;
1651;SDS011;823;49.028;8.454;2022-10-31T09:35:13;10.33;;;3.50;;
1651;SDS011;823;49.028;8.454;2022-10-31T09:40:13;9.43;;;3.40;;
1651;SDS011;823;49.028;8.454;2022-10-31T09:45:25;7.83;;;3.07;;
1651;SDS011;823;49.028;8.454;2022-10-31T09:50:52;12.77;;;4.00;;
1651;SDS011;823;49.028;8.454;2022-10-31T09:55:56;5.27;;;2.63;;
1651;SDS011;823;49.028;8.454;2022-10-31T10:00:59;6.33;;;3.43;;
1651;SDS011;823;49.028;8.454;2022-10-31T10:06:06;7.40;;;3.50;;
1651;SDS011;823;49.028;8.454;2022-10-31T10:27:20;9.30;;;3.37;;
1651;SDS011;823;49.028;8.454;2022-10-31T10:32:29;7.03;;;3.30;;
1651;SDS011;823;49.028;8.454;2022-10-31T10:37:34;7.80;;;2.97;;
1651;SDS011;823;49.028;8.454;2022-10-31T10:42:38;11.43;;;3.13;;
1651;SDS011;823;49.028;8.454;2022-10-31T10:47:59;8.23;;;3.10;;
1651;SDS011;823;49.028;8.454;2022-10-31T10:53:42;9.03;;;3.60;;
1651;SDS011;823;49.028;8.454;2022-10-31T10:59:03;9.40;;;3.37;;
1651;SDS011;823;49.028;8.454;2022-10-31T11:04:07;11.40;;;4.30;;
1651;SDS011;823;49.028;8.454;2022-10-31T11:09:22;8.13;;;3.00;;
1651;SDS011;823;49.028;8.454;2022-10-31T11:14:23;14.13;;;3.78;;
1651;SDS011;823;49.028;8.454;2022-10-31T11:19:25;8.10;;;3.07;;
1651;SDS011;823;49.028;8.454;2022-10-31T11:24:26;6.40;;;3.23;;
1651;SDS011;823;49.028;8.454;2022-10-31T11:29:39;5.90;;;3.00;;
1651;SDS011;823;49.028;8.454;2022-10-31T11:34:43;5.67;;;3.07;;
1651;SDS011;823;49.028;8.454;2022-10-31T11:39:49;9.60;;;3.70;;
1651;SDS011;823;49.028;8.454;2022-10-31T11:44:53;5.87;;;2.90;;
1651;SDS011;823;49.028;8.454;2022-10-31T11:49:55;13.13;;;3.50;;
1651;SDS011;823;49.028;8.454;2022-10-31T12:00:20;16.20;;;3.20;;
1651;SDS011;823;49.028;8.454;2022-10-31T12:05:26;7.70;;;3.50;;
1651;SDS011;823;49.028;8.454;2022-10-31T12:10:36;13.43;;;3.33;;
1651;SDS011;823;49.028;8.454;2022-10-31T12:15:49;10.40;;;3.40;;
1651;SDS011;823;49.028;8.454;2022-10-31T12:26:25;4.77;;;2.27;;
1651;SDS011;823;49.028;8.454;2022-10-31T12:52:39;14.37;;;3.03;;
1651;SDS011;823;49.028;8.454;2022-10-31T12:57:54;3.60;;;2.40;;
1651;SDS011;823;49.028;8.454;2022-10-31T13:03:21;7.23;;;3.50;;
1651;SDS011;823;49.028;8.454;2022-10-31T13:08:33;7.50;;;3.27;;
1651;SDS011;823;49.028;8.454;2022-10-31T13:19:27;12.07;;;4.20;;
1651;SDS011;823;49.028;8.454;2022-10-31T13:24:40;11.43;;;4.00;;
1651;SDS011;823;49.028;8.454;2022-10-31T13:29:44;11.30;;;3.03;;
1651;SDS011;823;49.028;8.454;2022-10-31T13:34:56;10.50;;;4.43;;
1651;SDS011;823;49.028;8.454;2022-10-31T13:40:21;5.53;;;3.00;;
1651;SDS011;823;49.028;8.454;2022-10-31T13:45:33;25.53;;;4.63;;
1651;SDS011;823;49.028;8.454;2022-10-31T13:50:33;7.43;;;3.47;;
1651;SDS011;823;49.028;8.454;2022-10-31T13:55:35;8.07;;;4.03;;
1651;SDS011;823;49.028;8.454;2022-10-31T14:00:35;25.17;;;7.20;;
1651;SDS011;823;49.028;8.454;2022-10-31T14:05:36;14.83;;;5.43;;
1651;SDS011;823;49.028;8.454;2022-10-31T14:10:37;20.60;;;5.80;;
1651;SDS011;823;49.028;8.454;2022-10-31T14:36:42;20.30;;;5.70;;
1651;SDS011;823;49.028;8.454;2022-10-31T14:53:21;7.90;;;3.30;;
1651;SDS011;823;49.028;8.454;2022-10-31T15:03:35;6.80;;;3.60;;
1651;SDS011;823;49.028;8.454;2022-10-31T15:08:46;16.03;;;3.90;;
1651;SDS011;823;49.028;8.454;2022-10-31T15:13:58;6.90;;;4.03;;
1651;SDS011;823;49.028;8.454;2022-10-31T15:19:05;4.87;;;3.27;;
1651;SDS011;823;49.028;8.454;2022-10-31T15:24:10;13.33;;;4.83;;
1651;SDS011;823;49.028;8.454;2022-10-31T15:29:16;9.70;;;4.97;;
1651;SDS011;823;49.028;8.454;2022-10-31T15:34:35;13.40;;;6.07;;
1651;SDS011;823;49.028;8.454;2022-10-31T15:39:39;13.60;;;4.20;;
1651;SDS011;823;49.028;8.454;2022-10-31T15:44:40;11.13;;;4.80;;
1651;SDS011;823;49.028;8.454;2022-10-31T15:49:46;8.53;;;5.37;;
1651;SDS011;823;49.028;8.454;2022-10-31T15:54:53;11.87;;;4.27;;
1651;SDS011;823;49.028;8.454;2022-10-31T15:59:55;9.83;;;3.97;;
1651;SDS011;823;49.028;8.454;2022-10-31T16:05:00;6.93;;;3.63;;
1651;SDS011;823;49.028;8.454;2022-10-31T16:10:02;8.00;;;4.50;;
1651;SDS011;823;49.028;8.454;2022-10-31T16:15:04;10.90;;;4.50;;
1651;SDS011;823;49.028;8.454;2022-10-31T16:20:06;10.13;;;5.10;;
1651;SDS011;823;49.028;8.454;2022-10-31T16:25:25;12.40;;;4.90;;
1651;SDS011;823;49.028;8.454;2022-10-31T16:35:38;10.97;;;4.80;;
1651;SDS011;823;49.028;8.454;2022-10-31T16:40:39;50.60;;;22.53;;
1651;SDS011;823;49.028;8.454;2022-10-31T16:45:42;17.67;;;8.47;;
1651;SDS011;823;49.028;8.454;2022-10-31T16:50:51;8.97;;;5.40;;
1651;SDS011;823;49.028;8.454;2022-10-31T16:55:56;14.30;;;5.90;;
1651;SDS011;823;49.028;8.454;2022-10-31T17:00:58;14.97;;;6.10;;
1651;SDS011;823;49.028;8.454;2022-10-31T17:05:59;14.83;;;5.50;;
1651;SDS011;823;49.028;8.454;2022-10-31T17:11:00;11.90;;;6.57;;
1651;SDS011;823;49.028;8.454;2022-10-31T17:16:01;7.90;;;5.20;;
1651;SDS011;823;49.028;8.454;2022-10-31T17:21:02;20.90;;;10.20;;
1651;SDS011;823;49.028;8.454;2022-10-31T17:26:05;20.50;;;5.80;;
1651;SDS011;823;49.028;8.454;2022-10-31T17:31:23;10.17;;;5.77;;
1651;SDS011;823;49.028;8.454;2022-10-31T17:36:27;18.90;;;7.33;;
1651;SDS011;823;49.028;8.454;2022-10-31T17:41:27;20.23;;;12.70;;
1651;SDS011;823;49.028;8.454;2022-10-31T17:46:28;16.83;;;9.87;;
1651;SDS011;823;49.028;8.454;2022-10-31T17:51:28;21.80;;;8.90;;
1651;SDS011;823;49.028;8.454;2022-10-31T17:56:29;16.93;;;7.80;;
1651;SDS011;823;49.028;8.454;2022-10-31T18:01:29;18.77;;;8.53;;
1651;SDS011;823;49.028;8.454;2022-10-31T18:06:29;19.90;;;7.60;;
1651;SDS011;823;49.028;8.454;2022-10-31T18:11:30;15.23;;;8.93;;
1651;SDS011;823;49.028;8.454;2022-10-31T18:16:31;19.60;;;6.97;;
1651;SDS011;823;49.028;8.454;2022-10-31T18:21:31;11.73;;;7.23;;
1651;SDS011;823;49.028;8.454;2022-10-31T18:26:32;12.10;;;6.70;;
1651;SDS011;823;49.028;8.454;2022-10-31T18:31:33;19.60;;;6.90;;
1651;SDS011;823;49.028;8.454;2022-10-31T18:36:33;12.52;;;7.20;;
1651;SDS011;823;49.028;8.454;2022-10-31T18:41:33;20.73;;;7.03;;
1651;SDS011;823;49.028;8.454;2022-10-31T18:46:34;22.93;;;9.30;;
1651;SDS011;823;49.028;8.454;2022-10-31T18:51:35;13.97;;;8.70;;
1651;SDS011;823;49.028;8.454;2022-10-31T18:56:35;14.53;;;8.23;;
1651;SDS011;823;49.028;8.454;2022-10-31T19:01:36;19.27;;;7.82;;
1651;SDS011;823;49.028;8.454;2022-10-31T19:06:36;13.83;;;7.60;;
1651;SDS011;823;49.028;8.454;2022-10-31T19:11:36;17.00;;;7.10;;
1651;SDS011;823;49.028;8.454;2022-10-31T19:16:38;18.37;;;8.17;;
1651;SDS011;823;49.028;8.454;2022-10-31T19:21:38;19.80;;;8.00;;
1651;SDS011;823;49.028;8.454;2022-10-31T19:26:38;15.83;;;8.00;;
1651;SDS011;823;49.028;8.454;2022-10-31T19:31:39;18.80;;;9.03;;
1651;SDS011;823;49.028;8.454;2022-10-31T19:36:39;20.20;;;7.53;;
1651;SDS011;823;49.028;8.454;2022-10-31T19:41:40;13.20;;;5.93;;
1651;SDS011;823;49.028;8.454;2022-10-31T19:46:40;18.17;;;7.07;;
1651;SDS011;823;49.028;8.454;2022-10-31T19:51:43;24.33;;;7.20;;
1651;SDS011;823;49.028;8.454;2022-10-31T19:56:43;15.60;;;6.78;;
1651;SDS011;823;49.028;8.454;2022-10-31T20:01:44;16.70;;;6.57;;
1651;SDS011;823;49.028;8.454;2022-10-31T20:06:44;15.90;;;9.10;;
1651;SDS011;823;49.028;8.454;2022-10-31T20:11:45;16.63;;;8.40;;
1651;SDS011;823;49.028;8.454;2022-10-31T20:16:45;18.37;;;9.20;;
1651;SDS011;823;49.028;8.454;2022-10-31T20:21:46;15.57;;;9.10;;
1651;SDS011;823;49.028;8.454;2022-10-31T20:26:46;15.90;;;8.70;;
1651;SDS011;823;49.028;8.454;2022-10-31T20:31:47;20.80;;;8.50;;
1651;SDS011;823;49.028;8.454;2022-10-31T20:36:47;18.63;;;8.50;;
1651;SDS011;823;49.028;8.454;2022-10-31T20:41:47;20.20;;;9.60;;
1651;SDS011;823;49.028;8.454;2022-10-31T20:46:48;22.35;;;9.23;;
1651;SDS011;823;49.028;8.454;2022-10-31T20:51:48;17.15;;;8.52;;
1651;SDS011;823;49.028;8.454;2022-10-31T20:56:48;16.98;;;8.75;;
1651;SDS011;823;49.028;8.454;2022-10-31T21:01:49;17.50;;;9.37;;
1651;SDS011;823;49.028;8.454;2022-10-31T21:06:49;18.23;;;8.87;;
1651;SDS011;823;49.028;8.454;2022-10-31T21:11:49;12.27;;;7.83;;
1651;SDS011;823;49.028;8.454;2022-10-31T21:16:50;22.45;;;11.57;;
1651;SDS011;823;49.028;8.454;2022-10-31T21:21:50;28.33;;;11.80;;
1651;SDS011;823;49.028;8.454;2022-10-31T21:26:50;20.50;;;10.23;;
1651;SDS011;823;49.028;8.454;2022-10-31T21:31:51;23.50;;;10.20;;
1651;SDS011;823;49.028;8.454;2022-10-31T21:36:51;20.13;;;10.17;;
1651;SDS011;823;49.028;8.454;2022-10-31T21:41:51;21.88;;;10.88;;
1651;SDS011;823;49.028;8.454;2022-10-31T21:46:52;23.23;;;10.63;;
1651;SDS011;823;49.028;8.454;2022-10-31T21:51:52;25.15;;;11.70;;
1651;SDS011;823;49.028;8.454;2022-10-31T21:56:53;21.80;;;9.27;;
1651;SDS011;823;49.028;8.454;2022-10-31T22:01:54;17.47;;;10.40;;
1651;SDS011;823;49.028;8.454;2022-10-31T22:06:56;21.97;;;10.23;;
1651;SDS011;823;49.028;8.454;2022-10-31T22:11:57;14.97;;;9.63;;
1651;SDS011;823;49.028;8.454;2022-10-31T22:16:58;24.00;;;10.80;;
1651;SDS011;823;49.028;8.454;2022-10-31T22:21:59;24.63;;;9.93;;
1651;SDS011;823;49.028;8.454;2022-10-31T22:27:00;18.73;;;10.73;;
1651;SDS011;823;49.028;8.454;2022-10-31T22:32:00;19.33;;;11.07;;
1651;SDS011;823;49.028;8.454;2022-10-31T22:37:01;21.30;;;11.40;;
1651;SDS011;823;49.028;8.454;2022-10-31T22:42:02;35.05;;;19.73;;
1651;SDS011;823;49.028;8.454;2022-10-31T22:47:02;25.53;;;12.97;;
1651;SDS011;823;49.028;8.454;2022-10-31T22:52:02;26.77;;;12.20;;
1651;SDS011;823;49.028;8.454;2022-10-31T22:57:04;24.77;;;13.03;;
1651;SDS011;823;49.028;8.454;2022-10-31T23:02:04;38.80;;;15.27;;
1651;SDS011;823;49.028;8.454;2022-10-31T23:07:05;24.00;;;12.55;;
1651;SDS011;823;49.028;8.454;2022-10-31T23:12:05;19.63;;;10.17;;
1651;SDS011;823;49.028;8.454;2022-10-31T23:17:24;15.83;;;8.57;;
1651;SDS011;823;49.028;8.454;2022-10-31T23:22:24;18.27;;;9.57;;
1651;SDS011;823;49.028;8.454;2022-10-31T23:27:24;16.08;;;9.18;;
1651;SDS011;823;49.028;8.454;2022-10-31T23:32:30;16.67;;;7.60;;
1651;SDS011;823;49.028;8.454;2022-10-31T23:37:32;20.17;;;8.67;;
1651;SDS011;823;49.028;8.454;2022-10-31T23:42:33;26.90;;;8.80;;
1651;SDS011;823;49.028;8.454;2022-10-31T23:47:34;27.07;;;8.30;;
1651;SDS011;823;49.028;8.454;2022-10-31T23:52:34;12.30;;;7.57;;
1651;SDS011;823;49.028;8.454;2022-10-31T23:57:34;15.43;;;7.67;;
